Time;durP1;ratioP1;P1;durP2;ratioP2;P2;SDS_P1;SDS_P2;PMS_P1;PMS_P2;Temp;Humidity;BMP_temperature;BMP_pressure;BME280_temperature;BME280_humidity;BME280_pressure;Samples;Min_cycle;Max_cycle;Signal;HPM_P1;HPM_P2
2023/12/15 00:01:24;;;;;;;2.17;0.77;;;;;;;4.06;100.00;101141.34;5086038;28;20050;-66
2023/12/15 00:03:49;;;;;;;2.90;1.10;;;;;;;4.09;100.00;101144.59;5066320;28;20040;-68
2023/12/15 00:06:15;;;;;;;1.42;0.40;;;;;;;4.12;100.00;101143.56;5083162;28;20039;-67
2023/12/15 00:08:41;;;;;;;5.70;1.33;;;;;;;4.08;100.00;101145.50;5062316;28;20028;-66
2023/12/15 00:11:07;;;;;;;2.70;0.70;;;;;;;4.10;100.00;101158.31;5087161;28;20035;-67
2023/12/15 00:13:32;;;;;;;1.83;0.60;;;;;;;4.08;100.00;101157.56;5087119;28;20024;-66
2023/12/15 00:15:57;;;;;;;3.00;0.93;;;;;;;4.06;100.00;101164.53;5083718;28;20028;-66
2023/12/15 00:18:23;;;;;;;2.28;0.50;;;;;;;4.14;100.00;101160.63;5080253;28;20106;-66
2023/12/15 00:20:48;;;;;;;2.70;0.70;;;;;;;4.09;100.00;101162.63;5069143;28;20074;-66
2023/12/15 00:23:14;;;;;;;1.92;0.40;;;;;;;4.10;100.00;101160.88;5087032;28;20043;-66
2023/12/15 00:25:39;;;;;;;3.30;0.75;;;;;;;4.13;100.00;101168.44;5073807;28;20081;-66
2023/12/15 00:28:05;;;;;;;2.63;1.05;;;;;;;4.17;100.00;101175.94;5085499;28;20056;-66
2023/12/15 00:30:31;;;;;;;1.55;0.40;;;;;;;4.22;100.00;101173.09;5085910;28;20032;-66
2023/12/15 00:32:56;;;;;;;2.38;0.65;;;;;;;4.20;100.00;101186.06;5084232;28;20032;-66
2023/12/15 00:35:22;;;;;;;2.42;0.60;;;;;;;4.18;100.00;101192.25;5084093;28;20032;-66
2023/12/15 00:37:47;;;;;;;2.40;0.43;;;;;;;4.23;100.00;101192.81;5085009;28;20023;-66
2023/12/15 00:40:13;;;;;;;1.20;0.40;;;;;;;4.24;100.00;101203.03;5084135;28;20096;-66
2023/12/15 00:42:38;;;;;;;0.82;0.35;;;;;;;4.27;100.00;101202.00;5066735;28;20039;-66
2023/12/15 00:45:04;;;;;;;3.30;0.52;;;;;;;4.30;100.00;101202.69;5087046;28;20035;-66
2023/12/15 00:47:29;;;;;;;2.05;0.75;;;;;;;4.41;100.00;101201.25;5081969;28;20048;-66
2023/12/15 00:49:55;;;;;;;1.50;0.50;;;;;;;4.41;100.00;101203.81;5085691;28;20028;-66
2023/12/15 00:52:20;;;;;;;1.20;0.40;;;;;;;4.32;100.00;101206.00;5087911;28;20031;-66
2023/12/15 00:54:46;;;;;;;2.25;0.55;;;;;;;4.29;100.00;101216.50;5067021;28;20138;-66
2023/12/15 00:57:11;;;;;;;3.00;0.60;;;;;;;4.29;100.00;101218.22;5088468;28;20038;-66
2023/12/15 00:59:37;;;;;;;1.55;0.40;;;;;;;4.28;100.00;101225.16;5091398;28;20137;-66
2023/12/15 01:02:04;;;;;;;1.25;0.50;;;;;;;4.28;100.00;101229.47;5091289;28;20177;-66
2023/12/15 01:04:30;;;;;;;2.78;0.55;;;;;;;4.26;100.00;101234.72;5086315;28;20039;-66
2023/12/15 01:06:56;;;;;;;2.05;0.32;;;;;;;4.25;100.00;101234.84;5084429;28;20749;-66
2023/12/15 01:09:21;;;;;;;3.55;0.60;;;;;;;4.22;100.00;101242.75;5087694;28;20036;-66
2023/12/15 01:11:46;;;;;;;1.75;0.43;;;;;;;4.18;100.00;101236.91;5083580;28;20036;-66
2023/12/15 01:14:12;;;;;;;1.88;0.30;;;;;;;4.17;100.00;101235.25;5086604;28;20035;-66
2023/12/15 01:16:48;;;;;;;2.88;0.57;;;;;;;4.19;100.00;101251.47;5087051;28;20036;-66
2023/12/15 01:19:15;;;;;;;1.55;0.47;;;;;;;4.29;100.00;101244.88;5090734;28;20475;-66
2023/12/15 01:21:40;;;;;;;1.55;0.47;;;;;;;4.41;100.00;101250.25;5087079;28;20465;-66
2023/12/15 01:24:06;;;;;;;4.65;0.50;;;;;;;4.32;100.00;101247.28;5088489;28;20123;-66
2023/12/15 01:26:31;;;;;;;1.70;0.40;;;;;;;4.25;100.00;101251.09;5089768;28;20524;-66
2023/12/15 01:28:57;;;;;;;2.88;0.40;;;;;;;4.13;100.00;101262.13;5087836;28;20039;-66
2023/12/15 01:31:22;;;;;;;2.55;0.68;;;;;;;4.13;100.00;101266.44;5088417;28;20028;-66
2023/12/15 01:33:48;;;;;;;3.17;0.35;;;;;;;4.14;100.00;101266.38;5089715;28;20024;-66
2023/12/15 01:36:13;;;;;;;2.78;0.50;;;;;;;4.14;100.00;101268.94;5088167;28;20082;-66
2023/12/15 01:38:39;;;;;;;2.08;0.30;;;;;;;4.14;100.00;101274.09;5090539;28;20343;-66
2023/12/15 01:41:04;;;;;;;2.28;0.30;;;;;;;4.04;100.00;101275.50;5088362;28;20063;-66
2023/12/15 01:43:30;;;;;;;4.95;0.40;;;;;;;3.80;100.00;101287.13;5086808;28;20043;-66
2023/12/15 01:45:55;;;;;;;1.35;0.22;;;;;;;3.57;100.00;101280.63;5092222;28;20028;-66
2023/12/15 01:48:22;;;;;;;1.38;0.30;;;;;;;3.64;100.00;101280.22;5088170;28;20120;-66
2023/12/15 01:50:48;;;;;;;2.17;0.40;;;;;;;3.94;100.00;101284.66;5066431;28;20502;-66
2023/12/15 01:53:14;;;;;;;2.22;0.30;;;;;;;4.04;100.00;101287.56;5091500;28;20032;-66
2023/12/15 01:55:39;;;;;;;1.48;0.40;;;;;;;4.16;100.00;101297.25;5087802;28;20468;-66
2023/12/15 01:58:04;;;;;;;7.00;0.77;;;;;;;4.17;100.00;101288.59;5085731;28;20109;-66
2023/12/15 02:00:30;;;;;;;2.40;0.40;;;;;;;4.07;100.00;101290.81;5086694;28;20028;-66
2023/12/15 02:02:55;;;;;;;3.13;0.40;;;;;;;4.08;100.00;101294.25;5086257;28;20029;-67
2023/12/15 02:05:21;;;;;;;1.75;0.50;;;;;;;4.02;100.00;101290.25;5085632;28;20478;-66
2023/12/15 02:07:46;;;;;;;1.63;0.30;;;;;;;3.98;100.00;101293.91;5089968;28;20543;-66
2023/12/15 02:10:12;;;;;;;1.30;0.40;;;;;;;3.99;100.00;101295.56;5085386;28;20074;-66
2023/12/15 02:12:37;;;;;;;4.95;0.57;;;;;;;3.97;100.00;101305.13;5086660;28;20028;-66
2023/12/15 02:15:03;;;;;;;1.92;0.52;;;;;;;4.02;100.00;101310.03;5089483;28;20028;-66
2023/12/15 02:17:28;;;;;;;1.83;0.40;;;;;;;4.03;100.00;101316.84;5087272;28;20399;-66
2023/12/15 02:19:54;;;;;;;3.25;0.38;;;;;;;4.04;100.00;101310.78;5068936;28;20055;-66
2023/12/15 02:22:26;;;;;;;1.20;0.38;;;;;;;4.00;100.00;101313.53;5088050;28;20097;-66
2023/12/15 02:24:52;;;;;;;6.57;0.28;;;;;;;3.95;100.00;101312.94;5083339;28;20108;-66
2023/12/15 02:27:17;;;;;;;4.65;0.43;;;;;;;3.86;100.00;101312.59;5087628;28;20146;-66
2023/12/15 02:29:43;;;;;;;2.15;0.30;;;;;;;3.78;100.00;101322.50;5087200;28;20028;-66
2023/12/15 02:32:08;;;;;;;1.95;0.30;;;;;;;3.82;100.00;101316.25;5082710;28;20039;-66
2023/12/15 02:34:35;;;;;;;1.13;0.20;;;;;;;3.81;100.00;101322.31;5082733;28;20038;-66
2023/12/15 02:37:00;;;;;;;2.55;0.50;;;;;;;3.86;100.00;101330.63;5086809;28;20447;-66
2023/12/15 02:39:26;;;;;;;1.27;0.35;;;;;;;3.91;100.00;101328.66;5090206;28;20054;-66
2023/12/15 02:41:51;;;;;;;1.38;0.20;;;;;;;3.91;100.00;101333.81;5088130;28;20024;-66
2023/12/15 02:44:17;;;;;;;0.70;0.20;;;;;;;3.91;100.00;101329.47;5089237;28;20088;-66
2023/12/15 02:46:42;;;;;;;0.68;0.30;;;;;;;3.91;100.00;101338.97;5087075;28;20043;-66
2023/12/15 02:49:08;;;;;;;1.88;0.43;;;;;;;4.04;100.00;101339.16;5087580;28;20396;-66
2023/12/15 02:51:33;;;;;;;2.05;0.30;;;;;;;4.06;100.00;101339.91;5083551;28;20059;-66
2023/12/15 02:54:00;;;;;;;1.48;0.20;;;;;;;4.02;100.00;101328.91;5070527;28;20043;-66
2023/12/15 02:56:26;;;;;;;0.95;0.30;;;;;;;4.01;100.00;101337.56;5086212;28;20442;-66
2023/12/15 02:58:52;;;;;;;1.10;0.40;;;;;;;3.94;100.00;101331.91;5085350;28;20052;-66
2023/12/15 03:01:18;;;;;;;2.75;0.30;;;;;;;3.94;100.00;101344.78;5081735;28;20028;-66
2023/12/15 03:03:43;;;;;;;2.25;0.95;;;;;;;3.91;100.00;101342.38;5087179;28;20517;-66
2023/12/15 03:06:09;;;;;;;2.75;0.60;;;;;;;3.95;100.00;101351.63;5084037;28;20514;-66
2023/12/15 03:08:34;;;;;;;1.70;0.30;;;;;;;3.98;100.00;101345.47;5066873;28;20032;-66
2023/12/15 03:11:00;;;;;;;0.88;0.20;;;;;;;3.97;100.00;101343.78;5087844;28;20039;-66
2023/12/15 03:13:28;;;;;;;1.02;0.32;;;;;;;3.96;100.00;101348.13;5086842;28;20039;-66
2023/12/15 03:15:55;;;;;;;1.27;0.30;;;;;;;3.94;100.00;101343.97;5087590;28;20016;-66
2023/12/15 03:18:21;;;;;;;1.50;0.20;;;;;;;3.89;100.00;101343.38;5083504;28;20494;-66
2023/12/15 03:20:46;;;;;;;3.63;0.20;;;;;;;3.89;100.00;101345.94;5083975;28;20036;-66
2023/12/15 03:23:12;;;;;;;2.17;0.43;;;;;;;3.86;100.00;101353.84;5086979;28;20036;-66
2023/12/15 03:25:37;;;;;;;5.60;0.70;;;;;;;3.76;100.00;101345.78;5090470;28;20039;-66
2023/12/15 03:28:03;;;;;;;3.67;0.45;;;;;;;3.78;100.00;101349.06;5083994;28;20142;-66
2023/12/15 03:30:28;;;;;;;2.13;0.20;;;;;;;3.75;100.00;101349.25;5080214;28;20047;-66
2023/12/15 03:32:54;;;;;;;1.30;0.22;;;;;;;3.74;100.00;101346.75;5085475;28;20115;-66
2023/12/15 03:35:19;;;;;;;1.50;0.30;;;;;;;3.76;100.00;101352.66;5080928;28;20073;-66
2023/12/15 03:37:45;;;;;;;1.75;0.28;;;;;;;3.73;100.00;101351.09;5087082;28;20042;-66
2023/12/15 03:40:11;;;;;;;1.38;0.20;;;;;;;3.73;100.00;101355.41;5086149;28;20112;-66
2023/12/15 03:42:36;;;;;;;0.82;0.20;;;;;;;3.71;100.00;101358.06;5086140;28;20429;-66
2023/12/15 03:45:03;;;;;;;0.82;0.20;;;;;;;3.69;100.00;101364.22;5086967;28;20039;-66
2023/12/15 03:47:29;;;;;;;1.85;0.30;;;;;;;3.69;100.00;101359.06;5087056;28;20035;-66
2023/12/15 03:49:54;;;;;;;1.00;0.40;;;;;;;3.71;100.00;101372.69;5085202;28;20028;-66
2023/12/15 03:52:20;;;;;;;1.58;0.30;;;;;;;3.73;100.00;101370.88;5083113;28;20070;-66
2023/12/15 03:54:45;;;;;;;0.73;0.17;;;;;;;3.71;100.00;101372.69;5088846;28;20036;-66
2023/12/15 03:57:10;;;;;;;1.50;0.20;;;;;;;3.70;100.00;101371.84;5083081;28;20118;-66
2023/12/15 03:59:39;;;;;;;0.93;0.30;;;;;;;3.65;100.00;101377.25;5083095;28;20100;-66
2023/12/15 04:02:05;;;;;;;1.00;0.32;;;;;;;3.69;100.00;101395.13;5087503;28;20114;-66
2023/12/15 04:04:32;;;;;;;2.20;0.50;;;;;;;3.66;100.00;101391.81;5082557;28;20171;-66
2023/12/15 04:06:57;;;;;;;1.25;0.20;;;;;;;3.57;100.00;101394.84;5085195;28;20052;-66
2023/12/15 04:09:23;;;;;;;0.50;0.10;;;;;;;3.62;100.00;101400.59;5085440;28;20071;-66
2023/12/15 04:11:48;;;;;;;1.33;0.20;;;;;;;3.63;100.00;101386.78;5082793;28;20038;-66
2023/12/15 04:14:15;;;;;;;3.20;0.35;;;;;;;3.61;100.00;101393.78;5086583;28;20039;-66
2023/12/15 04:16:41;;;;;;;0.43;0.20;;;;;;;3.64;100.00;101396.19;5087137;28;20036;-67
2023/12/15 04:19:06;;;;;;;1.23;0.30;;;;;;;3.62;100.00;101390.28;5085538;28;20035;-66
2023/12/15 04:21:32;;;;;;;0.98;0.20;;;;;;;3.57;100.00;101392.25;5084888;28;20161;-66
2023/12/15 04:23:57;;;;;;;0.75;0.10;;;;;;;3.56;100.00;101394.91;5075894;28;20024;-66
2023/12/15 04:26:23;;;;;;;1.05;0.10;;;;;;;3.57;100.00;101397.41;5085939;28;20106;-66
2023/12/15 04:28:48;;;;;;;1.52;0.20;;;;;;;3.58;100.00;101396.50;5088136;28;20044;-67
2023/12/15 04:31:14;;;;;;;2.30;0.30;;;;;;;3.64;100.00;101403.94;5093268;28;20028;-66
2023/12/15 04:33:39;;;;;;;0.63;0.10;;;;;;;3.61;100.00;101404.09;5089831;28;20032;-66
2023/12/15 04:36:06;;;;;;;1.02;0.10;;;;;;;3.54;100.00;101407.03;5089027;28;20024;-66
2023/12/15 04:38:31;;;;;;;0.63;0.20;;;;;;;3.53;100.00;101408.78;5086256;28;20035;-66
2023/12/15 04:40:57;;;;;;;0.77;0.20;;;;;;;3.58;100.00;101414.53;5086717;28;20024;-66
2023/12/15 04:43:22;;;;;;;0.40;0.10;;;;;;;3.56;100.00;101418.94;5088200;28;20471;-66
2023/12/15 04:45:47;;;;;;;1.55;0.10;;;;;;;3.58;100.00;101417.13;5090947;28;20028;-66
2023/12/15 04:48:13;;;;;;;0.50;0.10;;;;;;;3.60;100.00;101425.59;5087227;28;20051;-66
2023/12/15 04:50:41;;;;;;;0.70;0.20;;;;;;;3.62;100.00;101430.69;5087834;28;20036;-67
2023/12/15 04:53:07;;;;;;;1.77;0.20;;;;;;;3.59;100.00;101429.09;5084307;28;20038;-66
2023/12/15 04:55:32;;;;;;;2.50;0.10;;;;;;;3.51;100.00;101428.63;5089376;28;20391;-66
2023/12/15 04:57:58;;;;;;;0.75;0.20;;;;;;;3.31;100.00;101428.78;5083061;28;20479;-66
2023/12/15 05:00:24;;;;;;;0.93;0.20;;;;;;;3.16;100.00;101442.41;5089019;28;20035;-66
2023/12/15 05:02:49;;;;;;;1.63;0.20;;;;;;;3.33;100.00;101440.66;5085487;28;20489;-66
2023/12/15 05:05:15;;;;;;;0.90;0.20;;;;;;;3.40;100.00;101446.34;5088403;28;20024;-66
2023/12/15 05:07:41;;;;;;;0.70;0.10;;;;;;;3.32;100.00;101445.88;5065331;28;20117;-66
2023/12/15 05:10:08;;;;;;;1.48;0.20;;;;;;;3.44;100.00;101440.16;5084190;28;20107;-66
2023/12/15 05:12:35;;;;;;;1.48;0.20;;;;;;;3.51;100.00;101449.25;5088646;28;20047;-66
2023/12/15 05:15:04;;;;;;;1.15;0.40;;;;;;;3.56;100.00;101449.84;5082516;28;20411;-66
2023/12/15 05:17:30;;;;;;;0.77;0.10;;;;;;;3.53;100.00;101457.75;5087991;28;20042;-66
2023/12/15 05:19:56;;;;;;;2.10;0.40;;;;;;;3.50;100.00;101460.47;5086486;28;20194;-66
2023/12/15 05:22:21;;;;;;;1.10;0.22;;;;;;;3.42;100.00;101448.84;5089971;28;20861;-66
2023/12/15 05:24:47;;;;;;;1.05;0.20;;;;;;;3.46;100.00;101466.69;5083688;28;20703;-66
2023/12/15 05:27:12;;;;;;;0.95;0.20;;;;;;;3.50;100.00;101467.34;5086224;28;20055;-66
2023/12/15 05:29:44;;;;;;;1.10;0.28;;;;;;;3.45;100.00;101467.59;5088327;28;20062;-66
2023/12/15 05:32:10;;;;;;;1.02;0.10;;;;;;;3.42;100.00;101469.47;5086693;28;20078;-66
2023/12/15 05:34:36;;;;;;;1.00;0.22;;;;;;;3.38;100.00;101489.38;5087261;28;20111;-66
2023/12/15 05:37:01;;;;;;;0.68;0.22;;;;;;;3.46;100.00;101482.13;5087522;28;20024;-66
2023/12/15 05:39:27;;;;;;;1.23;0.20;;;;;;;3.55;100.00;101491.16;5090419;28;20028;-66
2023/12/15 05:41:52;;;;;;;1.00;0.40;;;;;;;3.59;100.00;101501.25;5089431;28;20447;-65
2023/12/15 05:44:17;;;;;;;1.88;0.30;;;;;;;3.63;100.00;101502.78;5090215;28;20040;-66
2023/12/15 05:46:43;;;;;;;0.50;0.10;;;;;;;3.66;100.00;101505.19;5072683;28;20034;-66
2023/12/15 05:49:10;;;;;;;0.90;0.10;;;;;;;3.61;100.00;101504.59;5087862;28;20039;-66
2023/12/15 05:51:36;;;;;;;0.75;0.10;;;;;;;3.57;100.00;101508.22;5088991;28;20024;-66
2023/12/15 05:54:01;;;;;;;0.20;0.10;;;;;;;3.53;100.00;101504.13;5090434;28;20028;-66
2023/12/15 05:56:27;;;;;;;0.88;0.20;;;;;;;3.54;100.00;101500.63;5088167;28;20028;-66
2023/12/15 05:58:52;;;;;;;1.98;0.20;;;;;;;3.56;99.88;101511.72;5088603;28;20471;-66
2023/12/15 06:01:17;;;;;;;1.85;0.30;;;;;;;3.64;99.19;101511.34;5083746;28;20117;-66
2023/12/15 06:03:43;;;;;;;0.47;0.10;;;;;;;3.61;99.41;101525.19;5086453;28;20032;-66
2023/12/15 06:06:12;;;;;;;0.70;0.10;;;;;;;3.60;99.78;101522.69;5087475;28;20031;-66
2023/12/15 06:08:37;;;;;;;0.45;0.10;;;;;;;3.60;99.43;101531.25;5088057;28;20036;-66
2023/12/15 06:11:03;;;;;;;1.48;0.30;;;;;;;3.60;99.42;101533.84;5086451;28;20396;-65
2023/12/15 06:13:28;;;;;;;2.03;0.28;;;;;;;3.52;99.57;101541.09;5064189;28;20036;-65
2023/12/15 06:15:53;;;;;;;1.20;0.20;;;;;;;3.42;100.00;101542.44;5083162;28;20035;-66
2023/12/15 06:18:19;;;;;;;1.73;0.20;;;;;;;3.38;100.00;101546.06;5086498;28;20032;-66
2023/12/15 06:20:44;;;;;;;1.25;0.45;;;;;;;3.37;100.00;101539.25;5087144;28;20026;-65
2023/12/15 06:23:10;;;;;;;2.47;0.50;;;;;;;3.34;100.00;101541.97;5088420;28;20063;-65
2023/12/15 06:25:35;;;;;;;0.80;0.28;;;;;;;3.33;100.00;101537.72;5085350;28;20056;-66
2023/12/15 06:28:01;;;;;;;1.02;0.22;;;;;;;3.32;100.00;101543.78;5086771;28;20101;-65
2023/12/15 06:30:26;;;;;;;0.40;0.10;;;;;;;3.27;100.00;101553.50;5084087;28;20072;-66
2023/12/15 06:32:52;;;;;;;0.80;0.20;;;;;;;3.32;100.00;101552.34;5088788;28;20039;-66
2023/12/15 06:35:17;;;;;;;3.13;0.57;;;;;;;3.34;100.00;101554.84;5082206;28;20119;-66
2023/12/15 06:37:43;;;;;;;0.77;0.10;;;;;;;3.35;100.00;101556.50;5078551;28;20487;-66
2023/12/15 06:40:09;;;;;;;1.85;0.20;;;;;;;3.32;100.00;101557.50;5089342;28;20042;-66
2023/12/15 06:42:34;;;;;;;0.65;0.10;;;;;;;3.33;100.00;101571.22;5081333;28;20024;-66
2023/12/15 06:45:07;;;;;;;1.45;0.40;;;;;;;3.33;100.00;101577.19;5077750;28;20560;-65
2023/12/15 06:47:32;;;;;;;0.68;0.20;;;;;;;3.40;100.00;101585.47;5083584;28;20031;-66
2023/12/15 06:49:58;;;;;;;0.60;0.17;;;;;;;3.39;99.32;101578.66;5068667;28;20074;-66
2023/12/15 06:52:23;;;;;;;4.18;0.20;;;;;;;3.36;99.59;101583.94;5081071;28;20082;-66
2023/12/15 06:54:49;;;;;;;0.70;0.22;;;;;;;3.36;100.00;101586.53;5085658;28;20032;-66
2023/12/15 06:57:14;;;;;;;1.42;0.25;;;;;;;3.38;100.00;101586.44;5079749;28;20047;-66
2023/12/15 06:59:40;;;;;;;1.00;0.10;;;;;;;3.40;100.00;101603.50;5083597;28;20039;-66
2023/12/15 07:02:05;;;;;;;1.60;0.30;;;;;;;3.38;99.84;101597.59;5080667;28;20036;-65
2023/12/15 07:04:30;;;;;;;6.68;0.20;;;;;;;3.38;100.00;101604.47;5075974;28;20585;-65
2023/12/15 07:06:56;;;;;;;1.25;0.20;;;;;;;3.37;100.00;101601.06;5083202;28;20032;-65
2023/12/15 07:09:22;;;;;;;1.75;0.30;;;;;;;3.41;99.53;101607.75;5079204;28;20415;-67
2023/12/15 07:11:47;;;;;;;3.08;0.40;;;;;;;3.45;99.49;101608.44;5086000;28;20027;-65
2023/12/15 07:14:13;;;;;;;0.47;0.20;;;;;;;3.46;99.30;101615.28;5082507;28;20028;-65
2023/12/15 07:16:38;;;;;;;1.02;0.20;;;;;;;3.49;99.37;101621.13;5084801;28;20043;-65
2023/12/15 07:19:03;;;;;;;3.00;0.75;;;;;;;3.52;99.04;101620.97;5084406;28;20024;-65
2023/12/15 07:21:29;;;;;;;2.13;0.38;;;;;;;3.55;98.92;101638.88;5083887;28;20036;-65
2023/12/15 07:23:55;;;;;;;1.45;0.80;;;;;;;3.60;98.32;101636.94;5087440;28;20028;-65
2023/12/15 07:26:20;;;;;;;2.08;0.20;;;;;;;3.63;98.31;101644.53;5083405;28;20032;-65
2023/12/15 07:28:46;;;;;;;2.38;0.30;;;;;;;3.66;98.01;101644.38;5081084;28;20040;-65
2023/12/15 07:31:11;;;;;;;1.40;0.20;;;;;;;3.69;98.28;101647.72;5086522;28;20039;-65
2023/12/15 07:33:37;;;;;;;1.95;0.30;;;;;;;3.72;97.80;101645.00;5068407;28;20462;-65
2023/12/15 07:36:02;;;;;;;1.35;0.50;;;;;;;3.82;96.39;101649.63;5082149;28;20024;-65
2023/12/15 07:38:28;;;;;;;3.95;0.20;;;;;;;3.86;96.70;101647.75;5086533;28;20384;-65
2023/12/15 07:40:54;;;;;;;3.25;0.38;;;;;;;3.86;97.52;101660.63;5086227;28;20106;-65
2023/12/15 07:43:20;;;;;;;0.93;0.20;;;;;;;3.83;98.13;101665.94;5087916;28;20035;-65
2023/12/15 07:45:46;;;;;;;1.02;0.40;;;;;;;3.76;99.71;101669.72;5088886;28;20126;-65
2023/12/15 07:48:13;;;;;;;0.38;0.10;;;;;;;3.60;100.00;101675.59;5087545;28;20546;-65
2023/12/15 07:50:39;;;;;;;1.83;0.20;;;;;;;3.73;98.70;101675.84;5084073;28;20107;-65
2023/12/15 07:53:05;;;;;;;0.90;0.20;;;;;;;3.84;98.10;101671.00;5088501;28;20078;-65
2023/12/15 07:55:30;;;;;;;1.70;0.22;;;;;;;3.99;95.93;101672.03;5067743;28;20048;-65
2023/12/15 07:57:56;;;;;;;1.00;0.20;;;;;;;4.00;95.36;101671.97;5086140;28;20032;-65
2023/12/15 08:00:22;;;;;;;2.88;0.40;;;;;;;3.99;95.29;101684.94;5086873;28;20024;-65
2023/12/15 08:02:48;;;;;;;1.52;0.20;;;;;;;4.00;96.35;101686.59;5092049;28;20383;-65
2023/12/15 08:05:14;;;;;;;1.77;0.38;;;;;;;4.05;96.04;101688.97;5087924;28;20039;-65
2023/12/15 08:07:40;;;;;;;0.77;0.30;;;;;;;4.12;95.81;101687.78;5088463;28;20081;-65
2023/12/15 08:10:06;;;;;;;1.05;0.20;;;;;;;4.17;95.51;101689.22;5072837;28;20031;-65
2023/12/15 08:12:31;;;;;;;2.22;0.50;;;;;;;4.25;94.49;101689.66;5082780;28;20183;-64
2023/12/15 08:14:57;;;;;;;1.33;0.30;;;;;;;4.31;94.33;101684.22;5090771;28;20122;-65
2023/12/15 08:17:22;;;;;;;3.33;0.35;;;;;;;4.44;93.05;101704.25;5085807;28;20025;-64
2023/12/15 08:19:47;;;;;;;2.63;0.20;;;;;;;4.57;91.99;101701.00;5090566;28;20028;-65
2023/12/15 08:22:13;;;;;;;3.08;0.30;;;;;;;4.66;91.41;101700.56;5092557;28;20074;-65
2023/12/15 08:24:39;;;;;;;1.38;0.32;;;;;;;4.72;91.86;101703.75;5090456;28;20090;-65
2023/12/15 08:27:04;;;;;;;1.73;0.30;;;;;;;4.73;92.17;101697.63;5091614;28;20050;-65
2023/12/15 08:29:30;;;;;;;1.48;0.25;;;;;;;4.78;92.14;101703.41;5091161;28;20048;-65
2023/12/15 08:31:55;;;;;;;3.05;0.30;;;;;;;4.83;92.08;101706.59;5091453;28;20058;-65
2023/12/15 08:34:21;;;;;;;1.73;0.40;;;;;;;4.88;90.91;101708.03;5091704;28;20032;-65
2023/12/15 08:36:46;;;;;;;1.23;0.35;;;;;;;4.95;91.66;101718.91;5087964;28;20028;-65
2023/12/15 08:39:12;;;;;;;6.38;0.50;;;;;;;4.99;91.82;101723.84;5090608;28;20055;-65
2023/12/15 08:41:38;;;;;;;1.83;0.30;;;;;;;5.02;91.07;101722.00;5074471;28;20134;-65
2023/12/15 08:44:03;;;;;;;4.43;0.77;;;;;;;5.06;89.99;101731.28;5090866;28;20032;-65
2023/12/15 08:46:31;;;;;;;1.15;0.32;;;;;;;5.15;90.67;101735.97;5085455;28;20082;-65
2023/12/15 08:48:56;;;;;;;2.05;0.47;;;;;;;5.21;90.26;101740.78;5092374;28;20043;-65
2023/12/15 08:51:21;;;;;;;3.15;0.60;;;;;;;5.27;90.30;101749.06;5090900;28;20027;-65
2023/12/15 08:53:47;;;;;;;1.13;0.22;;;;;;;5.41;89.10;101744.94;5091458;28;20100;-65
2023/12/15 08:56:12;;;;;;;1.83;0.22;;;;;;;5.53;88.79;101754.66;5089693;28;20071;-65
2023/12/15 08:58:38;;;;;;;2.70;0.40;;;;;;;5.65;86.82;101752.25;5090418;28;20123;-65
2023/12/15 09:01:03;;;;;;;0.90;0.25;;;;;;;5.62;87.85;101752.41;5092905;28;20024;-65
2023/12/15 09:03:29;;;;;;;1.95;0.47;;;;;;;5.66;88.08;101764.25;5088794;28;20102;-65
2023/12/15 09:05:55;;;;;;;1.60;0.30;;;;;;;5.61;87.65;101774.00;5091248;28;20391;-65
2023/12/15 09:08:20;;;;;;;3.88;0.50;;;;;;;5.64;88.60;101771.25;5088582;28;20070;-65
2023/12/15 09:10:50;;;;;;;2.58;0.40;;;;;;;5.72;87.84;101782.94;5088494;28;20039;-65
2023/12/15 09:13:16;;;;;;;3.88;0.40;;;;;;;5.76;87.79;101794.78;5088856;28;20059;-65
2023/12/15 09:15:42;;;;;;;1.73;0.50;;;;;;;5.76;87.51;101780.09;5087526;28;20158;-65
2023/12/15 09:18:08;;;;;;;1.63;0.40;;;;;;;5.76;88.58;101787.03;5087268;28;20127;-65
2023/12/15 09:20:33;;;;;;;2.17;0.20;;;;;;;5.88;86.77;101781.19;5090112;28;20027;-65
2023/12/15 09:22:59;;;;;;;0.88;0.40;;;;;;;5.92;87.70;101787.91;5082728;28;20074;-65
2023/12/15 09:25:24;;;;;;;2.47;0.47;;;;;;;5.91;87.60;101788.84;5089100;28;20089;-65
2023/12/15 09:27:50;;;;;;;0.63;0.20;;;;;;;5.90;87.46;101793.16;5087922;28;20490;-65
2023/12/15 09:30:15;;;;;;;0.80;0.40;;;;;;;5.93;87.52;101793.00;5082081;28;20064;-65
2023/12/15 09:32:41;;;;;;;3.35;0.40;;;;;;;6.04;88.00;101789.84;5091392;28;20383;-65
2023/12/15 09:35:07;;;;;;;2.13;0.20;;;;;;;6.14;87.99;101795.38;5092057;28;20035;-65
2023/12/15 09:37:32;;;;;;;2.25;0.63;;;;;;;6.28;86.30;101806.59;5084245;28;20028;-65
2023/12/15 09:39:58;;;;;;;3.30;0.40;;;;;;;6.32;86.66;101808.09;5087071;28;20101;-65
2023/12/15 09:42:23;;;;;;;1.33;0.20;;;;;;;6.37;86.23;101810.44;5091324;28;20040;-65
2023/12/15 09:44:51;;;;;;;0.68;0.20;;;;;;;6.51;85.20;101818.28;5091823;28;20032;-65
2023/12/15 09:47:21;;;;;;;3.92;0.20;;;;;;;6.57;85.53;101822.28;5087001;28;20036;-65
2023/12/15 09:49:51;;;;;;;2.20;0.30;;;;;;;6.55;86.30;101814.59;5090311;28;20067;-65
2023/12/15 09:52:17;;;;;;;1.75;0.40;;;;;;;6.68;84.78;101817.31;5088816;28;20309;-65
2023/12/15 09:54:43;;;;;;;1.08;0.52;;;;;;;6.92;83.30;101820.28;5089418;28;20028;-65
2023/12/15 09:57:09;;;;;;;1.70;0.30;;;;;;;7.05;82.25;101826.44;5084611;28;20476;-65
2023/12/15 09:59:37;;;;;;;1.15;0.20;;;;;;;7.06;83.54;101822.91;5086629;28;20081;-65
2023/12/15 10:02:04;;;;;;;1.50;0.40;;;;;;;7.05;84.02;101817.81;5091114;28;20020;-65
2023/12/15 10:04:29;;;;;;;0.50;0.10;;;;;;;7.11;83.21;101820.88;5080917;28;20037;-65
2023/12/15 10:06:54;;;;;;;1.42;0.17;;;;;;;7.12;83.52;101824.28;5091224;28;20035;-65
2023/12/15 10:09:20;;;;;;;1.48;0.20;;;;;;;7.20;81.79;101829.88;5090808;28;20040;-65
2023/12/15 10:11:46;;;;;;;0.90;0.20;;;;;;;7.18;83.18;101824.78;5088185;28;20163;-65
2023/12/15 10:14:14;;;;;;;0.93;0.20;;;;;;;7.19;83.52;101820.44;5080689;28;20028;-65
2023/12/15 10:16:40;;;;;;;3.55;0.50;;;;;;;7.32;84.03;101811.00;5088611;28;20040;-65
2023/12/15 10:19:07;;;;;;;2.33;0.30;;;;;;;7.42;83.90;101814.72;5084951;28;20020;-65
2023/12/15 10:21:34;;;;;;;1.63;0.30;;;;;;;7.44;83.87;101810.28;5088674;28;20069;-65
2023/12/15 10:24:16;;;;;;;1.25;0.30;;;;;;;7.46;82.20;101811.03;5089151;28;20043;-65
2023/12/15 10:26:41;;;;;;;2.10;0.40;;;;;;;7.55;83.17;101810.47;5085715;28;20032;-65
2023/12/15 10:29:08;;;;;;;5.47;0.30;;;;;;;7.60;82.85;101811.00;5089451;28;20502;-65
2023/12/15 10:31:33;;;;;;;2.00;0.47;;;;;;;7.69;82.31;101803.59;5088087;28;20028;-65
2023/12/15 10:33:59;;;;;;;5.47;0.40;;;;;;;7.71;82.32;101817.31;5089504;28;20486;-65
2023/12/15 10:36:24;;;;;;;3.15;0.63;;;;;;;7.68;84.81;101818.34;5090098;28;20032;-65
2023/12/15 10:38:50;;;;;;;3.55;0.50;;;;;;;7.83;80.49;101817.41;5086257;28;20106;-65
2023/12/15 10:41:17;;;;;;;0.90;0.30;;;;;;;7.85;82.87;101817.31;5086267;28;20036;-65
2023/12/15 10:43:44;;;;;;;8.05;0.43;;;;;;;7.95;82.02;101815.81;5068534;28;20031;-65
2023/12/15 10:46:10;;;;;;;3.63;0.30;;;;;;;8.18;82.49;101816.97;5089459;28;20032;-65
2023/12/15 10:48:38;;;;;;;2.90;0.30;;;;;;;8.15;80.42;101812.81;5085873;28;20096;-65
2023/12/15 10:51:06;;;;;;;0.70;0.30;;;;;;;8.28;78.01;101813.72;5090386;28;20123;-65
2023/12/15 10:53:32;;;;;;;2.70;0.30;;;;;;;8.40;79.26;101808.69;5070371;28;20044;-65
2023/12/15 10:55:58;;;;;;;1.33;0.28;;;;;;;8.38;81.57;101811.41;5083425;28;20058;-65
2023/12/15 10:58:23;;;;;;;2.40;0.50;;;;;;;8.47;80.92;101820.38;5087253;28;20083;-65
2023/12/15 11:00:49;;;;;;;3.65;0.52;;;;;;;8.51;79.86;101821.81;5088175;28;20099;-65
2023/12/15 11:03:15;;;;;;;4.60;0.20;;;;;;;8.54;79.98;101816.41;5082790;28;20032;-65
2023/12/15 11:05:40;;;;;;;0.80;0.20;;;;;;;8.57;79.10;101814.47;5084969;28;20031;-65
2023/12/15 11:08:07;;;;;;;1.58;0.30;;;;;;;8.62;78.24;101816.75;5086799;28;20153;-65
2023/12/15 11:10:33;;;;;;;4.03;0.88;;;;;;;8.68;80.49;101813.78;5086714;28;20118;-65
2023/12/15 11:12:58;;;;;;;2.25;0.40;;;;;;;8.65;82.92;101813.97;5089535;28;20584;-65
2023/12/15 11:15:26;;;;;;;2.05;0.30;;;;;;;8.61;81.56;101809.91;5088730;28;20467;-65
2023/12/15 11:17:57;;;;;;;0.55;0.10;;;;;;;8.68;80.26;101808.56;5086000;28;20036;-65
2023/12/15 11:20:24;;;;;;;1.15;0.20;;;;;;;8.90;78.67;101806.25;5086647;28;20379;-65
2023/12/15 11:22:55;;;;;;;2.63;0.20;;;;;;;9.02;78.32;101807.19;5085234;28;20034;-65